Main page
METAR-TAF:

METAR-TAF

Airports :

Bauerfield International Airport

Port Vila, Efate, Vanuatu

latitude: 17-42S, longitude: 168-18E, elevation: 20 m

Current weather observation

The report was made 55 minutes ago, at 23:00 UTC
Wind 7 kt from the East
Temperature 29°C
Humidity 55%
Pressure 1011 hPa
Visibility 10 km or more
Scattered clouds at a height of 2000 ft

METAR: NVVV 212300Z 09007KT 9999 SCT020 29/19 Q1011

Time: 10:55 (23:55 UTC)

Forecast

The report was made 1 hour and 35 minutes ago, at 22:20 UTC
Forecast valid from 22 at 00 UTC to 22 at 24 UTC
Wind 5 kt from the South/Southeast
Visibility 10 km or more
Scattered clouds at a height of 2000 ft
Probability 40%
between IN and TE UTC
Visibility: 9000 m
Broken clouds at a height of 1800 ft
light rain showers

TAF: NVVV 212220Z 2200/2224 16005KT 9999 SCT020 PROB40 INTER 2200/2206 9000 -SHRA BKN018

Weather observations and forecasts of more than 4000 airports (METAR and TAF reports).

The available stations are represented by yellow and red dots on the map.

Hover mouse over dot to see the name of the station.

Then click to see weather observations and forecasts.

To change the map : click on the green buttons with a black cross to zoom in, on the green button with a dash to zoom out, or on the green arrows for adjacent maps.


METAR-TAF: